Flight Track Log - Related Links

Times and Time Zones

All times are in EDT time to prevent confusion due to time zone crossing. See the SWA4466 flight status page for this flight to view local times or setup timezone preferences in your user account.

Time Position Orientation Groundspeed Altitude Reporting Facility
EDT Latitude Longitude Course Direction KTS MPH feet Rate Location/Type
Fri 02:49:23 PM 41.8040 -87.7080 71° East 162 186 2,500  Level FlightAware ADS-B
Fri 02:49:48 PM 41.8060 -87.6780 85° East 210 242 2,900 1,435 Climbing FlightAware ADS-B
Fri 02:50:09 PM 41.8080 -87.6510 84° East 224 258 3,600 2,512 Climbing FlightAware ADS-B
Fri 02:50:31 PM 41.8110 -87.6200 83° East 235 270 4,700 2,429 Climbing FlightAware ADS-B
Fri 02:50:51 PM 41.8130 -87.5880 85° East 263 303 5,300 2,550 Climbing FlightAware ADS-B
Fri 02:51:11 PM 41.8140 -87.5560 88° East 267 307 6,400 3,143 Climbing FlightAware ADS-B
Fri 02:51:33 PM 41.8110 -87.5200 96° East 275 316 7,500 3,143 Climbing FlightAware ADS-B
Fri 02:51:53 PM 41.8070 -87.4860 99° East 280 322 8,600 3,273 Climbing FlightAware ADS-B
Fri 02:52:17 PM 41.8030 -87.4430 97° East 289 333 9,900 3,103 Climbing FlightAware ADS-B
Fri 02:52:51 PM 41.7960 -87.3810 99° East 295 339 11,600 2,727 Climbing FlightAware ADS-B
Fri 02:53:23 PM 41.7900 -87.3220 98° East 308 354 12,900 2,500 Climbing FlightAware ADS-B
Fri 02:54:03 PM 41.7820 -87.2490 98° East 319 367 14,600 2,833 Climbing FlightAware ADS-B
Fri 02:54:35 PM 41.7750 -87.1820 98° East 316 364 16,300 3,176 Climbing FlightAware ADS-B
Fri 02:55:11 PM 41.7680 -87.1150 98° East 304 350 18,200 2,057 Climbing FlightAware ADS-B
Fri 02:55:45 PM 41.7620 -87.0480 97° East 341 392 18,700 761 Climbing FlightAware ADS-B
Fri 02:56:22 PM 41.7630 -86.9630 89° East 384 442 19,100 870 Climbing FlightAware ADS-B
Fri 02:56:54 PM 41.7640 -86.8880 89° East 407 468 19,700 1,629 Climbing FlightAware ADS-B
Fri 02:57:32 PM 41.7650 -86.7880 89° East 419 482 21,000 2,087 Climbing FlightAware ADS-B
Fri 02:58:03 PM 41.7660 -86.7060 89° East 424 488 22,100 2,029 Climbing FlightAware ADS-B
Fri 02:58:40 PM 41.7670 -86.6080 89° East 430 495 23,300 1,917 Climbing FlightAware ADS-B
Fri 02:59:15 PM 41.7710 -86.5140 87° East 435 501 24,400 1,800 Climbing FlightAware ADS-B
Fri 02:59:50 PM 41.7840 -86.4220 79° East 441 507 25,400 1,676 Climbing FlightAware ADS-B
Fri 03:00:23 PM 41.7970 -86.3340 79° East 448 516 26,300 1,558 Climbing FlightAware ADS-B
Fri 03:01:07 PM 41.8150 -86.2120 79° East 456 525 27,400 1,350 Climbing FlightAware ADS-B
Fri 03:01:43 PM 41.8290 -86.1110 79° East 464 534 28,100 1,167 Climbing FlightAware ADS-B
Fri 03:02:19 PM 41.8430 -86.0100 79° East 472 543 28,800 1,217 Climbing FlightAware ADS-B
Fri 03:02:52 PM 41.8570 -85.9150 79° East 477 549 29,500 1,371 Climbing FlightAware ADS-B
Fri 03:03:29 PM 41.8720 -85.8070 79° East 479 551 30,400 1,676 Climbing FlightAware ADS-B
Fri 03:04:00 PM 41.8840 -85.7180 80° East 470 541 31,400 1,840 Climbing FlightAware ADS-B
Fri 03:04:44 PM 41.9020 -85.5910 79° East 464 534 32,700 1,575 Climbing FlightAware ADS-B
Fri 03:05:20 PM 41.9160 -85.4920 79° East 464 534 33,500 1,250 Climbing FlightAware ADS-B
Fri 03:05:56 PM 41.9300 -85.3870 80° East 464 534 34,200 1,217 Climbing FlightAware ADS-B
Fri 03:06:29 PM 41.9420 -85.2950 80° East 461 531 34,900 696 Climbing FlightAware ADS-B
Fri 03:07:05 PM 41.9510 -85.1920 83° East 471 542 35,000 71 Climbing FlightAware ADS-B
Fri 03:07:53 PM 41.9510 -85.0500 90° East 470 541 35,000  Level FlightAware ADS-B
Fri 03:08:28 PM 41.9510 -84.9530 90° East 470 541 35,000  Level FlightAware ADS-B
Fri 03:09:04 PM 41.9500 -84.8450 91° East 469 540 35,000  Level FlightAware ADS-B
Fri 03:09:35 PM 41.9490 -84.7540 91° East 468 539 35,000  Level FlightAware ADS-B
Fri 03:10:13 PM 41.9490 -84.6510 90° East 467 537 35,000  Level FlightAware ADS-B
Fri 03:10:46 PM 41.9480 -84.5510 91° East 467 537 35,000  Level FlightAware ADS-B
Fri 03:11:01 PM 41.9470 -84.5110 92° East 467 537 35,000  Level FlightAware ADS-B
Fri 03:11:56 PM 41.9460 -84.3520 90° East 467 537 35,000  Level FlightAware ADS-B
Fri 03:12:32 PM 41.9450 -84.2460 91° East 467 537 35,000  Level FlightAware ADS-B
Fri 03:13:02 PM 41.9440 -84.1570 91° East 467 537 35,000  Level FlightAware ADS-B
Fri 03:13:36 PM 41.9430 -84.0580 91° East 467 537 35,000  Level FlightAware ADS-B
Fri 03:14:09 PM 41.9420 -83.9650 91° East 467 537 35,000  Level FlightAware ADS-B
Fri 03:14:44 PM 41.9400 -83.8620 91° East 466 536 35,000  Level FlightAware ADS-B
Fri 03:15:21 PM 41.9390 -83.7560 91° East 466 536 35,000  Level FlightAware ADS-B
Fri 03:15:54 PM 41.9370 -83.6600 92° East 466 536 35,000  Level FlightAware ADS-B
Fri 03:16:36 PM 41.9360 -83.5430 91° East 466 536 35,000  Level FlightAware ADS-B
Fri 03:17:12 PM 41.9340 -83.4400 91° East 465 535 35,000  Level FlightAware ADS-B
Fri 03:17:42 PM 41.9340 -83.3540 90° East 464 534 35,000  Level FlightAware ADS-B
Fri 03:18:20 PM 41.9340 -83.2420 90° East 464 534 35,000  Level FlightAware ADS-B
Fri 03:18:55 PM 41.9330 -83.1410 91° East 464 534 35,000  Level FlightAware ADS-B
Fri 03:19:27 PM 41.9330 -83.0470 90° East 462 532 35,000  Level FlightAware ADS-B
Fri 03:20:03 PM 41.9320 -82.9460 91° East 459 528 35,000  Level FlightAware ADS-B
Fri 03:20:41 PM 41.9310 -82.8430 91° East 456 525 35,000  Level FlightAware ADS-B
Fri 03:21:25 PM 41.9320 -82.7190 89° East 447 514 35,000  Level FlightAware ADS-B
Fri 03:21:56 PM 41.9400 -82.6480 81° East 441 507 35,000  Level FlightAware ADS-B
Fri 03:22:44 PM 41.9550 -82.5280 80° East 440 506 35,000  Level FlightAware ADS-B
Fri 03:23:21 PM 41.9670 -82.4230 81° East 440 506 35,000  Level FlightAware ADS-B
Fri 03:23:57 PM 41.9790 -82.3310 80° East 441 507 35,000  Level FlightAware ADS-B
Fri 03:24:28 PM 41.9890 -82.2450 81° East 442 509 35,000  Level FlightAware ADS-B
Fri 03:25:08 PM 42.0040 -82.1120 81° East 442 509 35,000  Level FlightAware ADS-B
Fri 03:25:48 PM 42.0170 -82.0070 81° East 442 509 35,000  Level FlightAware ADS-B
Fri 03:26:24 PM 42.0280 -81.9070 82° East 442 509 35,000  Level FlightAware ADS-B
Fri 03:26:58 PM 42.0390 -81.8160 81° East 441 507 35,000  Level FlightAware ADS-B
Fri 03:27:35 PM 42.0500 -81.7130 82° East 441 507 35,000  Level FlightAware ADS-B
Fri 03:28:05 PM 42.0590 -81.6330 81° East 440 506 35,000  Level FlightAware ADS-B
Fri 03:28:40 PM 42.0700 -81.5410 81° East 440 506 35,000  Level FlightAware ADS-B
Fri 03:29:19 PM 42.0820 -81.4320 82° East 440 506 35,000  Level FlightAware ADS-B
Fri 03:29:53 PM 42.0920 -81.3400 82° East 440 506 35,000  Level FlightAware ADS-B
Fri 03:30:27 PM 42.1020 -81.2510 81° East 440 506 35,000  Level FlightAware ADS-B
Fri 03:31:01 PM 42.1120 -81.1550 82° East 440 506 35,000  Level FlightAware ADS-B
Fri 03:31:37 PM 42.1230 -81.0580 81° East 440 506 35,000  Level FlightAware ADS-B
Fri 03:32:15 PM 42.1340 -80.9560 82° East 441 507 35,000  Level FlightAware ADS-B
Fri 03:32:49 PM 42.1430 -80.8640 82° East 442 509 35,000  Level FlightAware ADS-B
Fri 03:33:22 PM 42.1530 -80.7760 81° East 443 510 35,000  Level FlightAware ADS-B
Fri 03:33:58 PM 42.1630 -80.6770 82° East 445 512 35,000  Level FlightAware ADS-B
Fri 03:34:35 PM 42.1740 -80.5740 82° East 446 513 35,000  Level FlightAware ADS-B
Fri 03:35:07 PM 42.1830 -80.4860 82° East 447 514 35,000  Level FlightAware ADS-B
Fri 03:35:46 PM 42.1940 -80.3790 82° East 448 516 35,000  Level FlightAware ADS-B
Fri 03:36:17 PM 42.2020 -80.2950 83° East 447 514 35,000  Level FlightAware ADS-B
Fri 03:36:53 PM 42.2120 -80.1920 82° East 446 513 35,000  Level FlightAware ADS-B
Fri 03:37:30 PM 42.2220 -80.0910 82° East 446 513 35,000  Level FlightAware ADS-B
Fri 03:38:03 PM 42.2310 -80.0010 82° East 444 511 35,000  Level FlightAware ADS-B
Fri 03:38:39 PM 42.2410 -79.9030 82° East 441 507 35,000  Level FlightAware ADS-B
Fri 03:39:15 PM 42.2500 -79.8080 83° East 441 507 35,000  Level FlightAware ADS-B
Fri 03:39:48 PM 42.2590 -79.7140 83° East 440 506 35,000  Level FlightAware ADS-B
Fri 03:40:23 PM 42.2680 -79.6180 83° East 439 505 35,000  Level FlightAware ADS-B
Fri 03:40:57 PM 42.2770 -79.5260 82° East 438 504 35,000  Level FlightAware ADS-B
Fri 03:41:32 PM 42.2860 -79.4310 83° East 437 503 35,000  Level FlightAware ADS-B
Fri 03:42:07 PM 42.2940 -79.3390 83° East 436 502 35,000  Level FlightAware ADS-B
Fri 03:42:46 PM 42.3030 -79.2330 83° East 437 503 35,000  Level FlightAware ADS-B
Fri 03:43:18 PM 42.3080 -79.1450 86° East 437 503 35,000  Level FlightAware ADS-B
Fri 03:43:54 PM 42.3120 -79.0550 87° East 437 503 35,000  Level FlightAware ADS-B
Fri 03:44:28 PM 42.3180 -78.9560 85° East 437 503 35,000  Level FlightAware ADS-B
Fri 03:45:04 PM 42.3240 -78.8570 85° East 436 502 35,000  Level FlightAware ADS-B
Fri 03:45:40 PM 42.3290 -78.7650 86° East 437 503 35,000  Level FlightAware ADS-B
Fri 03:46:16 PM 42.3340 -78.6630 86° East 437 503 35,000  Level FlightAware ADS-B
Fri 03:46:48 PM 42.3390 -78.5750 86° East 437 503 35,000  Level FlightAware ADS-B
Fri 03:47:22 PM 42.3440 -78.4830 86° East 437 503 35,000  Level FlightAware ADS-B
Fri 03:48:00 PM 42.3490 -78.3790 86° East 437 503 35,000  Level FlightAware ADS-B
Fri 03:48:36 PM 42.3540 -78.2810 86° East 438 504 35,000  Level FlightAware ADS-B
Fri 03:49:08 PM 42.3580 -78.1940 86° East 437 503 35,000  Level FlightAware ADS-B
Fri 03:49:46 PM 42.3630 -78.0920 86° East 437 503 35,000  Level FlightAware ADS-B
Fri 03:50:16 PM 42.3670 -78.0140 86° East 437 503 35,000  Level FlightAware ADS-B
Fri 03:50:52 PM 42.3720 -77.9130 86° East 436 502 35,000  Level FlightAware ADS-B
Fri 03:51:28 PM 42.3760 -77.8180 87° East 436 502 35,000  Level FlightAware ADS-B
Fri 03:52:04 PM 42.3810 -77.7200 86° East 435 501 35,000  Level FlightAware ADS-B
Fri 03:52:40 PM 42.3850 -77.6190 87° East 434 499 35,000  Level FlightAware ADS-B
Fri 03:53:14 PM 42.3900 -77.5250 86° East 434 499 35,000  Level FlightAware ADS-B
Fri 03:53:50 PM 42.3940 -77.4290 87° East 434 499 35,000  Level FlightAware ADS-B
Fri 03:54:22 PM 42.3970 -77.3430 87° East 434 499 35,000  Level FlightAware ADS-B
Fri 03:54:58 PM 42.4010 -77.2430 87° East 434 499 35,000  Level FlightAware ADS-B
Fri 03:55:34 PM 42.4050 -77.1470 87° East 433 498 35,000  Level FlightAware ADS-B
Fri 03:56:10 PM 42.4090 -77.0510 87° East 432 497 35,000  Level FlightAware ADS-B
Fri 03:56:44 PM 42.4130 -76.9610 87° East 432 497 35,000  Level FlightAware ADS-B
Fri 03:57:20 PM 42.4160 -76.8620 88° East 431 496 35,000  Level FlightAware ADS-B
Fri 03:57:50 PM 42.4200 -76.7820 86° East 430 495 35,000  Level FlightAware ADS-B
Fri 03:58:29 PM 42.4230 -76.6800 88° East 428 493 35,000  Level FlightAware ADS-B
Fri 03:59:04 PM 42.4270 -76.5820 87° East 427 491 35,000  Level FlightAware ADS-B
Fri 03:59:38 PM 42.4300 -76.4930 87° East 425 489 35,000  Level FlightAware ADS-B
Fri 04:00:12 PM 42.4330 -76.4020 87° East 423 487 35,000  Level FlightAware ADS-B
Fri 04:00:50 PM 42.4360 -76.3040 88° East 421 484 35,000  Level FlightAware ADS-B
Fri 04:01:24 PM 42.4390 -76.2140 87° East 421 484 35,000 -265 Level FlightAware ADS-B
Fri 04:01:58 PM 42.4420 -76.1250 87° East 422 486 34,700 -750 Descending FlightAware ADS-B
Fri 04:02:36 PM 42.4460 -76.0220 87° East 429 494 34,100 -943 Descending FlightAware ADS-B
Fri 04:03:08 PM 42.4480 -75.9360 88° East 435 501 33,600 -971 Descending FlightAware ADS-B
Fri 04:03:44 PM 42.4510 -75.8410 88° East 439 505 33,000 -1,029 Descending FlightAware ADS-B
Fri 04:04:18 PM 42.4530 -75.7440 88° East 441 507 32,400 -971 Descending FlightAware ADS-B
Fri 04:04:52 PM 42.4560 -75.6510 87° East 440 506 31,900 -909 Descending FlightAware ADS-B
Fri 04:05:24 PM 42.4580 -75.5640 88° East 441 507 31,400 -1,000 Descending FlightAware ADS-B
Fri 04:06:04 PM 42.4610 -75.4540 88° East 434 499 30,700 -1,026 Descending FlightAware ADS-B
Fri 04:06:40 PM 42.4630 -75.3620 88° East 429 494 30,100 -1,000 Descending FlightAware ADS-B
Fri 04:07:10 PM 42.4650 -75.2770 88° East 423 487 29,600 -1,059 Descending FlightAware ADS-B
Fri 04:07:48 PM 42.4680 -75.1780 88° East 420 483 28,900 -1,000 Descending FlightAware ADS-B
Fri 04:08:22 PM 42.4700 -75.0900 88° East 413 475 28,400 -1,273 Descending FlightAware ADS-B
Fri 04:08:54 PM 42.4710 -75.0060 89° East 403 464 27,500 -1,886 Descending FlightAware ADS-B
Fri 04:09:32 PM 42.4730 -74.9160 88° East 396 456 26,200 -2,000 Descending FlightAware ADS-B
Fri 04:10:06 PM 42.4750 -74.8310 88° East 389 448 25,100 -1,971 Descending FlightAware ADS-B
Fri 04:10:42 PM 42.4760 -74.7470 89° East 382 440 23,900 -1,595 Descending FlightAware ADS-B
Fri 04:11:25 PM 42.4780 -74.6690 88° East 374 430 23,000 -1,169 Descending FlightAware ADS-B
Fri 04:11:59 PM 42.4790 -74.5680 89° East 380 437 22,400 -1,000 Descending FlightAware ADS-B
Fri 04:12:31 PM 42.4810 -74.4910 88° East 380 437 21,900 -986 Descending FlightAware ADS-B
Fri 04:13:12 PM 42.4830 -74.3870 88° East 377 434 21,200 -1,026 Descending FlightAware ADS-B
Fri 04:13:47 PM 42.4840 -74.3060 89° East 375 432 20,600 -1,043 Descending FlightAware ADS-B
Fri 04:14:21 PM 42.4850 -74.2270 89° East 373 429 20,000 -1,000 Descending FlightAware ADS-B
Fri 04:14:53 PM 42.4860 -74.1520 89° East 370 426 19,500 -930 Descending FlightAware ADS-B
Fri 04:15:32 PM 42.4870 -74.0640 89° East 364 419 18,900 -1,000 Descending FlightAware ADS-B
Fri 04:16:05 PM 42.4880 -73.9890 89° East 362 417 18,300 -985 Descending FlightAware ADS-B
Fri 04:16:39 PM 42.4890 -73.9130 89° East 360 414 17,800 -1,034 Descending FlightAware ADS-B
Fri 04:17:03 PM 42.4840 -73.8570 97° East 364 419 17,300 -1,082 Descending FlightAware ADS-B
Fri 04:17:40 PM 42.4630 -73.7780 110° East 364 419 16,700 -957 Descending FlightAware ADS-B
Fri 04:18:12 PM 42.4440 -73.7140 112° Southeast 360 414 16,200 -957 Descending FlightAware ADS-B
Fri 04:18:49 PM 42.4210 -73.6340 111° Southeast 357 411 15,600 -943 Descending FlightAware ADS-B
Fri 04:19:22 PM 42.4010 -73.5650 111° Southeast 355 409 15,100 -957 Descending FlightAware ADS-B
Fri 04:19:58 PM 42.3800 -73.4910 111° Southeast 350 403 14,500 -1,043 Descending FlightAware ADS-B
Fri 04:20:31 PM 42.3610 -73.4260 112° Southeast 345 397 13,900 -1,583 Descending FlightAware ADS-B
Fri 04:21:10 PM 42.3360 -73.3500 114° Southeast 353 406 12,600 -2,093 Descending FlightAware ADS-B
Fri 04:21:14 PM 42.3300 -73.3430 139° Southeast 355 409 12,400 -1,895 Descending FlightAware ADS-B
Fri 04:21:29 PM 42.3100 -73.3270 149° Southeast 356 410 12,000 -1,080 Descending FlightAware ADS-B
Fri 04:22:04 PM 42.2570 -73.2980 158° South 333 383 11,500 -696 Descending FlightAware ADS-B
Fri 04:22:38 PM 42.2100 -73.2720 158° South 307 353 11,200 -857 Descending FlightAware ADS-B
Fri 04:23:14 PM 42.1650 -73.2460 157° South 298 343 10,500 -1,292 Descending FlightAware ADS-B
Fri 04:23:43 PM 42.1300 -73.2160 148° Southeast 291 335 9,800 -1,469 Descending FlightAware ADS-B
Fri 04:24:03 PM 42.1080 -73.1970 147° Southeast 287 330 9,300 -1,500 Descending FlightAware ADS-B
Fri 04:24:23 PM 42.0870 -73.1780 146° Southeast 285 328 8,800 -1,429 Descending FlightAware ADS-B
Fri 04:24:45 PM 42.0630 -73.1570 147° Southeast 285 328 8,300 -1,459 Descending FlightAware ADS-B
Fri 04:25:00 PM 42.0460 -73.1410 145° Southeast 284 327 7,900 -1,355 Descending FlightAware ADS-B
Fri 04:25:16 PM 42.0280 -73.1240 145° Southeast 280 322 7,600 -727 Descending FlightAware ADS-B
Fri 04:25:33 PM 42.0140 -73.1070 138° Southeast 261 300 7,500 -857 Descending FlightAware ADS-B
Fri 04:25:58 PM 41.9930 -73.0810 137° Southeast 246 283 7,000 -600 Descending FlightAware ADS-B
Fri 04:26:23 PM 41.9760 -73.0590 136° Southeast 246 283 7,000 -941 Level FlightAware ADS-B
Fri 04:26:49 PM 41.9510 -73.0300 139° Southeast 215 247 6,200 -1,263 Descending FlightAware ADS-B
Fri 04:27:20 PM 41.9300 -73.0040 137° Southeast 196 226 5,800 -545 Descending FlightAware ADS-B
Fri 04:27:55 PM 41.9090 -72.9780 137° Southeast 193 222 5,600 -1,254 Descending FlightAware ADS-B
Fri 04:28:27 PM 41.8886 -72.9589 137° Southeast 188 216 4,400 -1,565 Descending Boston Center
Fri 04:29:04 PM 41.8761 -72.9364 127° Southeast 197 227 3,800 -1,309 Descending Boston Center
Fri 04:29:22 PM 41.8681 -72.9028 108° East 180 207 3,200 -1,180 Descending Boston Center
Fri 04:30:05 PM 41.8703 -72.8611 86° East 166 191 2,600 -806 Descending Boston Center
Fri 04:30:29 PM 41.8703 -72.8331 90° East 157 181 2,300 -600 Descending Boston Center
Fri 04:31:05 PM 41.8725 -72.7997 85° East 161 185 2,000 -492 Descending Boston Center
Fri 04:31:30 PM 41.8725 -72.7747 90° East 156 180 1,800 -581 Descending Boston Center
Fri 04:32:07 PM 41.8914 -72.7553 37° Northeast 154 177 1,400 -764 Descending Boston Center
Fri 04:32:25 PM 41.9019 -72.7414 44° Northeast 144 166 1,100 -842 Descending Boston Center
Fri 04:33:04 PM 41.9186 -72.7164 48° Northeast 140 161 600 -416 Descending Boston Center
Fri 04:34:06 PM 41.9417 -72.6689 57° Northeast 140 161 400 8,700 Descending Boston Center
Fri 04:35:04 PM 41.9625 -72.6272 56° Northeast 140 161 18,000 18,207 Climbing Boston Center
Fri 04:37:00 PM 41.9333 -72.6833 135° Southeast  Level FlightAware Approximate
Fri 04:44:00 PM 41.9392 -72.6834 135° Southeast  Level Estimated
Fri 04:45:00 PM 41.9333 -72.6833 135° Southeast  Level FlightAware Approximate
Fri 04:46:00 PM 41.9392 -72.6834 135° Southeast  Level Estimated

Login

Don't have an account? Register now (free) for customized features, flight alerts, and more!